createdAt,value
2022-11-09T00:01:44.329Z,25.90
2022-11-09T00:04:11.496Z,25.17
2022-11-09T00:06:38.456Z,28.77
2022-11-09T00:09:08.148Z,26.55
2022-11-09T00:11:38.846Z,27.30
2022-11-09T00:14:06.030Z,23.70
2022-11-09T00:16:33.031Z,22.43
2022-11-09T00:18:59.800Z,27.02
2022-11-09T00:21:26.648Z,31.02
2022-11-09T00:23:53.998Z,22.38
2022-11-09T00:26:21.570Z,28.75
2022-11-09T00:28:48.989Z,25.15
2022-11-09T00:31:18.378Z,25.20
2022-11-09T00:33:49.533Z,22.33
2022-11-09T00:36:16.584Z,23.17
2022-11-09T00:38:43.422Z,22.95
2022-11-09T00:41:11.967Z,24.27
2022-11-09T00:43:38.848Z,30.57
2022-11-09T00:46:06.018Z,20.15
2022-11-09T00:48:33.486Z,23.92
2022-11-09T00:51:00.642Z,42.70
2022-11-09T00:53:27.669Z,25.67
2022-11-09T00:56:00.372Z,26.20
2022-11-09T00:58:31.011Z,25.55
2022-11-09T01:00:58.950Z,22.33
2022-11-09T01:03:26.569Z,22.90
2022-11-09T01:05:53.563Z,27.40
2022-11-09T01:08:20.537Z,27.85
2022-11-09T01:10:48.566Z,29.58
2022-11-09T01:13:17.712Z,23.35
2022-11-09T01:15:47.008Z,21.15
2022-11-09T01:18:15.085Z,23.05
2022-11-09T01:20:46.901Z,25.65
2022-11-09T01:23:16.454Z,24.63
2022-11-09T01:25:43.803Z,23.45
2022-11-09T01:28:11.642Z,24.05
2022-11-09T01:30:41.023Z,21.10
2022-11-09T01:33:10.428Z,29.15
2022-11-09T01:35:39.596Z,25.70
2022-11-09T01:38:08.068Z,22.38
2022-11-09T01:40:37.526Z,22.00
2022-11-09T01:43:18.715Z,22.80
2022-11-09T01:46:06.678Z,17.20
2022-11-09T01:48:48.343Z,20.85
2022-11-09T01:51:27.754Z,26.40
2022-11-09T01:54:10.663Z,21.67
2022-11-09T01:56:38.878Z,27.08
2022-11-09T01:59:14.488Z,25.77
2022-11-09T02:01:42.936Z,24.13
2022-11-09T02:04:27.401Z,26.23
2022-11-09T02:06:57.475Z,24.27
2022-11-09T02:09:29.859Z,26.25
2022-11-09T02:11:56.805Z,28.60
2022-11-09T02:14:26.735Z,22.33
2022-11-09T02:16:53.665Z,24.45
2022-11-09T02:19:20.465Z,23.75
2022-11-09T02:21:47.342Z,25.15
2022-11-09T02:24:14.205Z,32.15
2022-11-09T02:26:53.355Z,27.35
2022-11-09T02:29:28.346Z,25.02
2022-11-09T02:31:59.344Z,29.55
2022-11-09T02:34:26.158Z,27.38
2022-11-09T02:36:52.997Z,24.92
2022-11-09T02:39:23.356Z,31.77
2022-11-09T02:42:21.016Z,23.13
2022-11-09T02:44:52.087Z,29.10
2022-11-09T02:47:18.844Z,25.98
2022-11-09T02:49:45.613Z,20.70
2022-11-09T02:52:12.448Z,36.47
2022-11-09T02:54:39.212Z,25.20
2022-11-09T02:57:05.969Z,26.77
2022-11-09T02:59:32.878Z,26.07
2022-11-09T03:01:59.743Z,22.38
2022-11-09T03:04:26.549Z,25.33
2022-11-09T03:06:53.381Z,24.88
2022-11-09T03:09:20.212Z,29.13
2022-11-09T03:11:47.037Z,30.85
2022-11-09T03:14:13.814Z,27.75
2022-11-09T03:16:40.702Z,25.17
2022-11-09T03:19:07.722Z,26.23
2022-11-09T03:21:35.184Z,21.50
2022-11-09T03:24:02.039Z,29.38
2022-11-09T03:26:28.816Z,23.92
2022-11-09T03:28:55.623Z,29.27
2022-11-09T03:31:22.466Z,31.60
2022-11-09T03:33:49.260Z,26.65
2022-11-09T03:36:16.207Z,24.23
2022-11-09T03:38:42.979Z,27.30
2022-11-09T03:41:09.740Z,32.03
2022-11-09T03:43:36.496Z,25.83
2022-11-09T03:46:03.350Z,27.02
2022-11-09T03:48:30.090Z,28.30
2022-11-09T03:50:56.847Z,29.63
2022-11-09T03:53:23.584Z,22.00
2022-11-09T03:55:50.384Z,30.45
2022-11-09T03:58:17.146Z,25.30
2022-11-09T04:00:44.006Z,26.70
2022-11-09T04:03:10.766Z,27.23
2022-11-09T04:05:37.583Z,26.92
2022-11-09T04:08:04.719Z,26.73
2022-11-09T04:10:31.508Z,23.60
2022-11-09T04:12:58.582Z,25.60
2022-11-09T04:15:25.423Z,28.77
2022-11-09T04:17:56.714Z,24.55
2022-11-09T04:20:23.900Z,27.63
2022-11-09T04:22:58.363Z,24.92
2022-11-09T04:25:26.079Z,28.35
2022-11-09T04:27:59.975Z,24.58
2022-11-09T04:30:28.334Z,24.77
2022-11-09T04:32:59.038Z,28.25
2022-11-09T04:35:28.176Z,27.65
2022-11-09T04:37:58.788Z,28.02
2022-11-09T04:40:27.310Z,24.73
2022-11-09T04:42:54.197Z,27.65
2022-11-09T04:45:22.097Z,26.17
2022-11-09T04:47:48.993Z,24.73
2022-11-09T04:50:16.098Z,26.15
2022-11-09T04:52:42.837Z,27.83
2022-11-09T04:55:09.955Z,28.77
2022-11-09T04:57:36.711Z,27.48
2022-11-09T05:00:04.695Z,26.55
2022-11-09T05:02:32.024Z,25.55
2022-11-09T05:04:58.809Z,23.85
2022-11-09T05:07:25.655Z,23.55
2022-11-09T05:09:52.417Z,32.08
2022-11-09T05:12:19.189Z,23.45
2022-11-09T05:14:45.964Z,28.70
2022-11-09T05:17:12.737Z,27.33
2022-11-09T05:19:39.527Z,24.33
2022-11-09T05:22:32.512Z,29.33
2022-11-09T05:24:59.299Z,29.33
2022-11-09T05:27:26.061Z,31.25
2022-11-09T05:29:52.925Z,30.20
2022-11-09T05:32:19.696Z,32.50
2022-11-09T05:34:46.493Z,34.40
2022-11-09T05:37:13.479Z,27.10
2022-11-09T05:39:40.243Z,27.45
2022-11-09T05:42:07.070Z,28.48
2022-11-09T05:44:33.816Z,31.35
2022-11-09T05:47:00.613Z,30.08
2022-11-09T05:49:27.376Z,24.85
2022-11-09T05:51:54.120Z,28.20
2022-11-09T05:54:20.869Z,28.77
2022-11-09T05:56:50.553Z,27.70
2022-11-09T05:59:17.270Z,29.58
2022-11-09T06:01:44.148Z,29.55
2022-11-09T06:04:10.965Z,30.00
2022-11-09T06:06:37.903Z,26.15
2022-11-09T06:09:04.755Z,28.50
2022-11-09T06:11:31.530Z,26.20
2022-11-09T06:13:58.333Z,28.13
2022-11-09T06:16:25.433Z,26.25
2022-11-09T06:18:52.241Z,32.28
2022-11-09T06:21:19.050Z,29.60
2022-11-09T06:23:45.876Z,32.35
2022-11-09T06:26:13.348Z,32.88
2022-11-09T06:28:41.523Z,33.90
2022-11-09T06:31:14.382Z,36.75
2022-11-09T06:33:41.210Z,27.80
2022-11-09T06:36:09.363Z,26.30
2022-11-09T06:38:36.223Z,35.13
2022-11-09T06:41:03.155Z,25.85
2022-11-09T06:43:30.021Z,31.73
2022-11-09T06:45:56.837Z,30.38
2022-11-09T06:48:24.115Z,31.55
2022-11-09T06:50:50.902Z,31.35
2022-11-09T06:53:18.916Z,29.02
2022-11-09T06:55:50.504Z,28.67
2022-11-09T06:58:18.474Z,27.85
2022-11-09T07:00:45.943Z,33.92
2022-11-09T07:03:17.545Z,31.70
2022-11-09T07:05:44.969Z,33.95
2022-11-09T07:08:12.247Z,32.55
2022-11-09T07:10:39.402Z,30.15
2022-11-09T07:13:06.848Z,31.95
2022-11-09T07:15:35.443Z,35.03
2022-11-09T07:18:03.933Z,32.40
2022-11-09T07:20:31.471Z,35.17
2022-11-09T07:22:58.651Z,30.38
2022-11-09T07:25:27.325Z,30.30
2022-11-09T07:27:54.597Z,31.73
2022-11-09T07:30:21.505Z,30.73
2022-11-09T07:35:35.090Z,35.38
2022-11-09T07:38:02.143Z,27.73
2022-11-09T07:40:29.901Z,35.55
2022-11-09T07:43:01.178Z,28.30
2022-11-09T07:45:29.332Z,33.03
2022-11-09T07:48:01.330Z,28.38
2022-11-09T07:50:29.473Z,32.85
2022-11-09T07:52:57.635Z,34.33
2022-11-09T07:55:25.418Z,41.10
2022-11-09T07:57:57.299Z,30.63
2022-11-09T08:00:24.956Z,30.30
2022-11-09T08:02:51.994Z,29.50
2022-11-09T08:05:18.926Z,35.88
2022-11-09T08:07:45.741Z,34.77
2022-11-09T08:10:13.487Z,33.10
2022-11-09T08:12:40.468Z,32.58
2022-11-09T08:15:07.845Z,39.70
2022-11-09T08:17:34.725Z,30.95
2022-11-09T08:20:02.282Z,31.15
2022-11-09T08:22:29.182Z,33.38
2022-11-09T08:24:56.060Z,32.35
2022-11-09T08:27:23.452Z,34.45
2022-11-09T08:29:50.320Z,30.60
2022-11-09T08:32:17.168Z,31.58
2022-11-09T08:34:48.294Z,31.42
2022-11-09T08:37:16.477Z,31.83
2022-11-09T08:39:43.323Z,29.90
2022-11-09T08:42:10.099Z,36.75
2022-11-09T08:44:36.865Z,33.73
2022-11-09T08:47:03.674Z,32.97
2022-11-09T08:49:30.510Z,33.93
2022-11-09T08:51:57.254Z,35.50
2022-11-09T08:54:24.236Z,33.73
2022-11-09T08:56:51.012Z,44.53
2022-11-09T08:59:17.814Z,30.57
2022-11-09T09:01:44.786Z,34.43
2022-11-09T09:04:11.621Z,30.90
2022-11-09T09:06:38.426Z,34.33
2022-11-09T09:09:05.234Z,34.20
2022-11-09T09:11:32.065Z,31.23
2022-11-09T09:13:58.907Z,32.67
2022-11-09T09:16:25.768Z,30.63
2022-11-09T09:18:52.618Z,27.20
2022-11-09T09:21:19.423Z,38.93
2022-11-09T09:23:49.343Z,34.77
2022-11-09T09:26:16.601Z,33.60
2022-11-09T09:28:43.673Z,38.60
2022-11-09T09:31:14.358Z,35.73
2022-11-09T09:33:45.007Z,31.00
2022-11-09T09:36:21.008Z,32.67
2022-11-09T09:38:51.740Z,29.37
2022-11-09T09:41:29.506Z,29.43
2022-11-09T09:44:00.793Z,36.53
2022-11-09T09:46:51.173Z,34.35
2022-11-09T09:49:24.946Z,36.07
2022-11-09T09:52:03.490Z,32.77
2022-11-09T09:54:39.263Z,39.60
2022-11-09T09:57:18.747Z,29.47
2022-11-09T09:59:50.208Z,34.63
2022-11-09T10:02:31.228Z,33.10
2022-11-09T10:05:02.103Z,41.80
2022-11-09T10:07:49.792Z,33.50
2022-11-09T10:10:25.455Z,32.30
2022-11-09T10:13:01.341Z,31.97
2022-11-09T10:15:54.202Z,28.40
2022-11-09T10:18:23.961Z,32.57
2022-11-09T10:21:08.843Z,27.90
2022-11-09T10:23:40.296Z,26.80
2022-11-09T10:26:23.986Z,29.13
2022-11-09T10:31:47.087Z,34.27
2022-11-09T10:34:26.664Z,28.70
2022-11-09T10:37:18.444Z,25.70
2022-11-09T10:40:08.554Z,30.10
2022-11-09T10:42:35.837Z,29.73
2022-11-09T10:45:13.619Z,31.70
2022-11-09T10:47:51.811Z,29.83
2022-11-09T10:50:30.929Z,27.57
2022-11-09T10:53:16.038Z,24.87
2022-11-09T10:56:04.867Z,26.20
2022-11-09T10:58:47.197Z,24.77
2022-11-09T11:01:17.880Z,30.37
2022-11-09T11:03:45.951Z,23.80
2022-11-09T11:06:15.767Z,26.80
2022-11-09T11:08:48.341Z,28.87
2022-11-09T11:11:36.764Z,27.87
2022-11-09T11:14:23.543Z,26.73
2022-11-09T11:16:53.260Z,26.40
2022-11-09T11:19:38.742Z,30.23
2022-11-09T11:22:08.587Z,21.93
2022-11-09T11:24:58.891Z,25.03
2022-11-09T11:27:46.853Z,26.47
2022-11-09T11:30:28.583Z,29.83
2022-11-09T11:32:59.047Z,29.67
2022-11-09T11:35:49.221Z,25.87
2022-11-09T11:38:40.420Z,28.23
2022-11-09T11:41:31.844Z,35.60
2022-11-09T11:44:19.225Z,25.03
2022-11-09T11:46:48.404Z,27.67
2022-11-09T11:49:46.518Z,25.70
2022-11-09T11:52:25.924Z,28.30
2022-11-09T11:55:16.302Z,26.40
2022-11-09T11:57:52.433Z,28.33
2022-11-09T12:00:20.885Z,29.50
2022-11-09T12:03:03.218Z,28.67
2022-11-09T12:05:51.727Z,29.13
2022-11-09T12:08:43.243Z,26.33
2022-11-09T12:11:35.710Z,27.70
2022-11-09T12:14:56.375Z,26.07
2022-11-09T12:17:44.738Z,26.67
2022-11-09T12:20:17.707Z,25.97
2022-11-09T12:22:58.912Z,24.67
2022-11-09T12:25:38.097Z,26.90
2022-11-09T12:28:32.652Z,25.93
2022-11-09T12:31:30.104Z,25.87
2022-11-09T12:34:03.050Z,25.33
2022-11-09T12:36:38.580Z,27.60
2022-11-09T12:39:19.893Z,31.63
2022-11-09T12:41:49.077Z,29.00
2022-11-09T12:44:18.654Z,27.33
2022-11-09T12:46:58.909Z,29.40
2022-11-09T12:49:36.858Z,22.00
2022-11-09T12:52:06.749Z,41.07
2022-11-09T12:54:36.454Z,27.50
2022-11-09T12:57:07.909Z,20.87
2022-11-09T12:59:55.318Z,27.03
2022-11-09T13:02:58.619Z,24.87
2022-11-09T13:05:34.222Z,25.23
2022-11-09T13:08:03.020Z,31.57
2022-11-09T13:10:34.442Z,24.20
2022-11-09T13:13:06.174Z,22.50
2022-11-09T13:15:35.761Z,27.90
2022-11-09T13:18:22.781Z,26.50
2022-11-09T13:20:56.374Z,26.43
2022-11-09T13:23:47.452Z,33.37
2022-11-09T13:26:23.142Z,26.13
2022-11-09T13:29:29.676Z,23.10
2022-11-09T13:32:05.468Z,22.70
2022-11-09T13:34:54.542Z,26.43
2022-11-09T13:37:42.611Z,29.40
2022-11-09T13:40:31.329Z,29.23
2022-11-09T13:43:10.590Z,20.47
2022-11-09T13:45:59.907Z,23.03
2022-11-09T13:48:31.693Z,21.40
2022-11-09T13:51:23.621Z,24.33
2022-11-09T13:54:05.429Z,29.23
2022-11-09T13:56:32.272Z,23.43
2022-11-09T13:59:17.231Z,25.33
2022-11-09T14:01:49.713Z,26.40
2022-11-09T14:04:27.375Z,20.90
2022-11-09T14:07:24.947Z,26.63
2022-11-09T14:09:57.595Z,26.40
2022-11-09T14:13:13.310Z,25.23
2022-11-09T14:16:01.047Z,26.93
2022-11-09T14:18:46.567Z,33.37
2022-11-09T14:22:02.092Z,25.00
2022-11-09T14:24:33.620Z,25.77
2022-11-09T14:27:09.783Z,22.37
2022-11-09T14:29:54.538Z,30.23
2022-11-09T14:32:35.988Z,27.30
2022-11-09T14:35:23.025Z,24.00
2022-11-09T14:37:52.139Z,29.40
2022-11-09T14:40:31.508Z,26.93
2022-11-09T14:43:03.677Z,24.77
2022-11-09T14:45:30.643Z,28.20
2022-11-09T14:47:59.606Z,24.50
2022-11-09T14:50:35.426Z,24.67
2022-11-09T14:53:04.519Z,25.93
2022-11-09T14:55:41.400Z,26.83
2022-11-09T14:58:13.183Z,26.23
2022-11-09T15:00:45.627Z,27.87
2022-11-09T15:03:28.040Z,25.63
2022-11-09T15:06:07.476Z,23.70
2022-11-09T15:08:35.981Z,31.93
2022-11-09T15:11:03.102Z,24.60
2022-11-09T15:13:31.489Z,25.90
2022-11-09T15:15:58.557Z,26.00
2022-11-09T15:18:33.975Z,27.03
2022-11-09T15:21:17.569Z,27.67
2022-11-09T15:23:49.402Z,25.77
2022-11-09T15:26:36.731Z,27.83
2022-11-09T15:29:35.807Z,25.80
2022-11-09T15:32:13.662Z,29.57
2022-11-09T15:34:57.212Z,30.10
2022-11-09T15:37:31.762Z,28.97
2022-11-09T15:39:59.584Z,28.40
2022-11-09T15:42:27.125Z,26.47
2022-11-09T15:44:56.366Z,26.50
2022-11-09T15:47:35.258Z,30.43
2022-11-09T15:50:11.048Z,35.13
2022-11-09T15:52:37.867Z,29.30
2022-11-09T15:55:05.028Z,30.50
2022-11-09T15:57:32.005Z,32.77
2022-11-09T16:00:00.200Z,30.33
2022-11-09T16:02:29.623Z,30.33
2022-11-09T16:04:56.691Z,26.40
2022-11-09T16:07:23.530Z,28.00
2022-11-09T16:09:50.363Z,33.37
2022-11-09T16:12:17.159Z,31.43
2022-11-09T16:14:43.988Z,29.73
2022-11-09T16:17:10.814Z,33.37
2022-11-09T16:19:39.598Z,33.90
2022-11-09T16:22:08.538Z,34.50
2022-11-09T16:24:35.677Z,34.33
2022-11-09T16:27:02.478Z,33.80
2022-11-09T16:29:30.448Z,32.40
2022-11-09T16:31:57.293Z,35.13
2022-11-09T16:34:24.110Z,34.60
2022-11-09T16:36:56.598Z,33.37
2022-11-09T16:39:25.806Z,37.57
2022-11-09T16:41:53.431Z,38.83
2022-11-09T16:44:22.847Z,42.90
2022-11-09T16:46:50.218Z,31.60
2022-11-09T16:49:17.023Z,33.90
2022-11-09T16:51:43.859Z,34.53
2022-11-09T16:54:10.679Z,39.23
2022-11-09T16:56:37.461Z,38.57
2022-11-09T16:59:04.340Z,31.47
2022-11-09T17:01:31.229Z,36.53
2022-11-09T17:03:58.140Z,35.33
2022-11-09T17:06:25.027Z,31.10
2022-11-09T17:08:56.404Z,39.43
2022-11-09T17:11:23.443Z,34.10
2022-11-09T17:13:57.592Z,45.03
2022-11-09T17:16:25.137Z,33.67
2022-11-09T17:18:56.650Z,32.30
2022-11-09T17:21:25.937Z,33.00
2022-11-09T17:23:54.335Z,37.27
2022-11-09T17:26:22.116Z,37.90
2022-11-09T17:28:49.074Z,35.37
2022-11-09T17:31:23.867Z,36.97
2022-11-09T17:33:50.780Z,35.97
2022-11-09T17:36:35.165Z,35.77
2022-11-09T17:39:06.451Z,34.57
2022-11-09T17:41:33.310Z,35.67
2022-11-09T17:44:01.604Z,33.37
2022-11-09T17:46:28.517Z,33.37
2022-11-09T17:48:55.524Z,32.30
2022-11-09T17:51:22.600Z,32.73
2022-11-09T17:53:49.549Z,36.93
2022-11-09T17:56:16.546Z,35.70
2022-11-09T17:58:45.733Z,38.37
2022-11-09T18:01:15.235Z,39.37
2022-11-09T18:03:42.549Z,38.20
2022-11-09T18:06:15.225Z,39.53
2022-11-09T18:08:42.460Z,37.20
2022-11-09T18:11:18.977Z,31.50
2022-11-09T18:13:45.949Z,31.90
2022-11-09T18:16:17.836Z,32.60
2022-11-09T18:18:45.095Z,36.33
2022-11-09T18:21:18.181Z,35.40
2022-11-09T18:23:46.263Z,31.10
2022-11-09T18:26:13.808Z,35.20
2022-11-09T18:28:40.831Z,26.57
2022-11-09T18:31:13.550Z,38.90
2022-11-09T18:33:41.347Z,36.13
2022-11-09T18:36:15.087Z,34.10
2022-11-09T18:38:44.084Z,38.03
2022-11-09T18:41:14.632Z,33.43
2022-11-09T18:43:42.084Z,38.30
2022-11-09T18:46:11.018Z,33.33
2022-11-09T18:48:37.944Z,34.50
2022-11-09T18:51:06.805Z,37.87
2022-11-09T18:53:41.987Z,36.93
2022-11-09T18:56:23.482Z,41.83
2022-11-09T18:58:53.006Z,41.37
2022-11-09T19:01:20.739Z,37.20
2022-11-09T19:03:47.606Z,39.57
2022-11-09T19:06:17.119Z,32.30
2022-11-09T19:09:03.074Z,36.10
2022-11-09T19:11:30.714Z,38.10
2022-11-09T19:13:58.013Z,43.60
2022-11-09T19:16:26.224Z,44.83
2022-11-09T19:18:53.367Z,38.53
2022-11-09T19:21:36.292Z,41.50
2022-11-09T19:24:03.506Z,39.00
2022-11-09T19:26:30.392Z,49.10
2022-11-09T19:28:57.240Z,48.07
2022-11-09T19:31:24.865Z,40.67
2022-11-09T19:33:52.464Z,44.60
2022-11-09T19:36:30.092Z,41.40
2022-11-09T19:38:57.858Z,51.50
2022-11-09T19:41:25.540Z,47.83
2022-11-09T19:43:54.731Z,39.97
2022-11-09T19:46:22.211Z,47.00
2022-11-09T19:48:49.000Z,40.47
2022-11-09T19:51:16.952Z,50.23
2022-11-09T19:53:51.846Z,49.33
2022-11-09T19:56:19.761Z,49.20
2022-11-09T19:58:55.412Z,45.80
2022-11-09T20:01:23.651Z,50.07
2022-11-09T20:03:51.886Z,45.58
2022-11-09T20:06:19.585Z,47.60
2022-11-09T20:08:47.406Z,37.03
2022-11-09T20:11:35.809Z,43.83
2022-11-09T20:14:06.594Z,40.17
2022-11-09T20:16:34.356Z,38.87
2022-11-09T20:19:03.046Z,35.77
2022-11-09T20:21:29.838Z,44.50
2022-11-09T20:23:57.018Z,48.78
2022-11-09T20:26:24.046Z,47.13
2022-11-09T20:28:53.466Z,48.77
2022-11-09T20:31:21.241Z,39.13
2022-11-09T20:33:49.034Z,34.00
2022-11-09T20:36:18.619Z,41.60
2022-11-09T20:38:46.158Z,42.23
2022-11-09T20:41:13.552Z,40.13
2022-11-09T20:43:40.858Z,42.30
2022-11-09T20:46:16.738Z,39.47
2022-11-09T20:48:59.402Z,39.50
2022-11-09T20:51:26.764Z,40.07
2022-11-09T20:53:53.662Z,41.78
2022-11-09T20:56:20.861Z,42.60
2022-11-09T20:58:47.767Z,42.63
2022-11-09T21:01:16.480Z,36.88
2022-11-09T21:03:43.845Z,40.65
2022-11-09T21:06:12.512Z,40.03
2022-11-09T21:08:39.828Z,39.30
2022-11-09T21:11:08.132Z,40.08
2022-11-09T21:13:35.012Z,50.55
2022-11-09T21:16:10.785Z,40.50
2022-11-09T21:18:37.717Z,37.53
2022-11-09T21:21:15.786Z,42.07
2022-11-09T21:24:02.259Z,40.70
2022-11-09T21:26:48.191Z,41.17
2022-11-09T21:29:36.564Z,41.40
2022-11-09T21:32:04.435Z,43.20
2022-11-09T21:34:36.535Z,42.75
2022-11-09T21:37:04.661Z,39.22
2022-11-09T21:39:31.834Z,42.53
2022-11-09T21:41:58.992Z,42.60
2022-11-09T21:44:28.703Z,35.70
2022-11-09T21:46:55.589Z,45.92
2022-11-09T21:49:22.414Z,46.90
2022-11-09T21:51:49.275Z,40.25
2022-11-09T21:54:16.194Z,35.65
2022-11-09T21:56:43.085Z,41.10
2022-11-09T21:59:09.934Z,48.22
2022-11-09T22:01:36.813Z,37.70
2022-11-09T22:04:03.714Z,41.20
2022-11-09T22:06:30.734Z,37.15
2022-11-09T22:08:57.706Z,42.05
2022-11-09T22:11:45.600Z,35.00
2022-11-09T22:14:32.793Z,42.00
2022-11-09T22:17:00.091Z,48.03
2022-11-09T22:19:46.192Z,40.13
2022-11-09T22:22:14.199Z,36.78
2022-11-09T22:24:41.602Z,42.38
2022-11-09T22:27:08.818Z,36.63
2022-11-09T22:29:35.991Z,39.83
2022-11-09T22:32:02.858Z,41.65
2022-11-09T22:34:29.620Z,43.67
2022-11-09T22:36:56.443Z,38.20
2022-11-09T22:39:23.375Z,36.25
2022-11-09T22:41:50.291Z,42.35
2022-11-09T22:44:17.117Z,41.58
2022-11-09T22:46:44.029Z,40.33
2022-11-09T22:49:10.873Z,38.53
2022-11-09T22:51:37.693Z,41.08
2022-11-09T22:54:04.653Z,41.70
2022-11-09T22:56:31.499Z,42.97
2022-11-09T22:58:58.320Z,45.88
2022-11-09T23:01:25.218Z,36.35
2022-11-09T23:03:52.458Z,36.15
2022-11-09T23:06:21.718Z,40.60
2022-11-09T23:08:49.318Z,40.10
2022-11-09T23:11:21.299Z,32.60
2022-11-09T23:13:55.719Z,41.30
2022-11-09T23:16:23.802Z,36.93
2022-11-09T23:18:53.854Z,36.13
2022-11-09T23:21:33.013Z,36.37
2022-11-09T23:24:02.491Z,39.60
2022-11-09T23:26:30.491Z,36.67
2022-11-09T23:28:57.433Z,35.42
2022-11-09T23:31:25.110Z,37.08
2022-11-09T23:33:54.541Z,37.65
2022-11-09T23:36:23.016Z,37.23
2022-11-09T23:38:50.465Z,40.80
2022-11-09T23:41:17.834Z,36.30
2022-11-09T23:43:48.896Z,43.80
2022-11-09T23:46:17.004Z,38.83
2022-11-09T23:48:43.922Z,41.85
2022-11-09T23:51:11.006Z,44.43
2022-11-09T23:53:38.396Z,36.03
2022-11-09T23:56:10.278Z,47.30
2022-11-09T23:58:37.804Z,43.67
